createdAt,value
2022-08-24T00:03:15.287Z,5.07
2022-08-24T00:06:09.914Z,3.80
2022-08-24T00:08:58.802Z,3.50
2022-08-24T00:11:46.341Z,5.05
2022-08-24T00:14:33.750Z,3.55
2022-08-24T00:17:21.588Z,3.90
2022-08-24T00:20:12.505Z,3.92
2022-08-24T00:23:00.098Z,5.03
2022-08-24T00:25:48.043Z,4.60
2022-08-24T00:28:36.219Z,6.13
2022-08-24T00:31:23.702Z,4.13
2022-08-24T00:34:13.339Z,3.88
2022-08-24T00:37:02.105Z,4.43
2022-08-24T00:39:49.330Z,6.90
2022-08-24T00:42:36.639Z,5.03
2022-08-24T00:45:24.894Z,6.22
2022-08-24T00:48:16.504Z,5.10
2022-08-24T00:51:07.354Z,6.00
2022-08-24T00:54:06.455Z,4.40
2022-08-24T00:56:57.397Z,3.40
2022-08-24T00:59:50.165Z,3.58
2022-08-24T01:02:42.015Z,5.18
2022-08-24T01:05:29.019Z,4.20
2022-08-24T01:08:16.990Z,4.80
2022-08-24T01:11:09.410Z,6.38
2022-08-24T01:14:01.151Z,3.67
2022-08-24T01:17:05.667Z,3.67
2022-08-24T01:19:56.205Z,3.58
2022-08-24T01:22:57.898Z,3.38
2022-08-24T01:25:46.657Z,5.45
2022-08-24T01:28:33.881Z,6.63
2022-08-24T01:31:25.511Z,4.68
2022-08-24T01:34:13.180Z,3.38
2022-08-24T01:37:00.603Z,3.40
2022-08-24T01:39:50.880Z,3.95
2022-08-24T01:42:39.285Z,3.42
2022-08-24T01:45:26.517Z,3.55
2022-08-24T01:48:15.295Z,3.63
2022-08-24T01:51:11.067Z,4.15
2022-08-24T01:54:08.410Z,5.03
2022-08-24T01:56:55.926Z,3.67
2022-08-24T01:59:44.636Z,4.00
2022-08-24T02:02:32.518Z,6.20
2022-08-24T02:05:20.869Z,4.57
2022-08-24T02:08:08.170Z,4.68
2022-08-24T02:10:56.967Z,5.28
2022-08-24T02:13:45.244Z,5.82
2022-08-24T02:16:33.975Z,5.25
2022-08-24T02:19:21.297Z,7.43
2022-08-24T02:22:09.373Z,10.75
2022-08-24T02:24:58.430Z,9.93
2022-08-24T02:27:46.366Z,14.20
2022-08-24T02:30:33.742Z,15.20
2022-08-24T02:33:23.540Z,20.17
2022-08-24T02:36:26.335Z,20.30
2022-08-24T02:39:17.283Z,22.77
2022-08-24T02:42:07.143Z,18.33
2022-08-24T02:44:55.519Z,25.33
2022-08-24T02:47:42.930Z,26.25
2022-08-24T02:50:32.097Z,27.10
2022-08-24T02:53:22.277Z,27.58
2022-08-24T02:56:09.326Z,28.58
2022-08-24T02:58:57.649Z,29.48
2022-08-24T03:01:45.454Z,30.60
2022-08-24T03:04:33.549Z,26.52
2022-08-24T03:07:23.529Z,30.88
2022-08-24T03:10:11.757Z,32.05
2022-08-24T03:13:01.334Z,26.83
2022-08-24T03:15:48.596Z,29.88
2022-08-24T03:18:44.887Z,30.73
2022-08-24T03:21:34.136Z,26.52
2022-08-24T03:24:23.382Z,27.85
2022-08-24T03:27:11.799Z,29.90
2022-08-24T03:29:59.027Z,26.45
2022-08-24T03:32:47.225Z,24.48
2022-08-24T03:35:35.431Z,33.08
2022-08-24T03:38:23.325Z,24.65
2022-08-24T03:41:12.531Z,28.30
2022-08-24T03:43:59.538Z,29.58
2022-08-24T03:46:46.785Z,23.65
2022-08-24T03:49:34.106Z,26.98
2022-08-24T03:52:21.993Z,21.98
2022-08-24T03:55:11.161Z,30.75
2022-08-24T03:57:59.906Z,25.23
2022-08-24T04:00:48.203Z,22.98
2022-08-24T04:03:37.804Z,38.75
2022-08-24T04:06:25.305Z,42.75
2022-08-24T04:09:14.300Z,49.33
2022-08-24T04:12:04.791Z,24.42
2022-08-24T04:14:55.811Z,25.42
2022-08-24T04:17:44.250Z,26.60
2022-08-24T04:20:31.811Z,29.65
2022-08-24T04:23:19.607Z,25.33
2022-08-24T04:26:07.103Z,30.25
2022-08-24T04:28:55.374Z,23.08
2022-08-24T04:31:45.332Z,23.25
2022-08-24T04:34:40.043Z,22.38
2022-08-24T04:37:29.136Z,20.73
2022-08-24T04:40:26.486Z,16.67
2022-08-24T04:43:19.466Z,22.77
2022-08-24T04:46:08.497Z,22.13
2022-08-24T04:48:57.972Z,22.20
2022-08-24T04:51:45.057Z,23.88
2022-08-24T04:54:41.337Z,25.63
2022-08-24T04:57:36.829Z,29.27
2022-08-24T05:00:24.558Z,27.60
2022-08-24T05:03:12.059Z,27.95
2022-08-24T05:06:01.838Z,33.53
2022-08-24T05:08:49.803Z,31.27
2022-08-24T05:11:40.293Z,30.85
2022-08-24T05:14:29.256Z,33.28
2022-08-24T05:17:16.675Z,31.48
2022-08-24T05:20:05.346Z,30.30
2022-08-24T05:22:56.339Z,34.20
2022-08-24T05:25:44.555Z,31.98
2022-08-24T05:28:31.947Z,30.48
2022-08-24T05:31:22.015Z,30.52
2022-08-24T05:34:09.686Z,28.30
2022-08-24T05:36:56.618Z,32.00
2022-08-24T05:40:07.651Z,36.67
2022-08-24T05:42:57.118Z,31.80
2022-08-24T05:45:44.640Z,34.83
2022-08-24T05:48:33.075Z,28.77
2022-08-24T05:51:20.379Z,27.00
2022-08-24T05:54:15.821Z,25.30
2022-08-24T05:57:18.081Z,23.88
2022-08-24T06:00:25.619Z,25.08
2022-08-24T06:03:14.761Z,25.13
2022-08-24T06:06:08.610Z,25.88
2022-08-24T06:08:59.412Z,27.27
2022-08-24T06:11:47.514Z,26.77
2022-08-24T06:14:37.831Z,21.90
2022-08-24T06:17:26.283Z,25.15
2022-08-24T06:20:13.678Z,19.70
2022-08-24T06:23:00.891Z,22.17
2022-08-24T06:26:15.840Z,18.92
2022-08-24T06:29:04.870Z,24.38
2022-08-24T06:31:56.101Z,18.55
2022-08-24T06:35:11.583Z,26.83
2022-08-24T06:37:59.496Z,22.30
2022-08-24T06:40:47.183Z,22.95
2022-08-24T06:43:34.694Z,21.13
2022-08-24T06:46:32.859Z,17.48
2022-08-24T06:49:21.920Z,17.02
2022-08-24T06:52:10.099Z,19.27
2022-08-24T06:54:58.195Z,19.52
2022-08-24T06:57:49.203Z,17.95
2022-08-24T07:00:39.712Z,19.50
2022-08-24T07:03:27.381Z,17.80
2022-08-24T07:06:25.184Z,18.35
2022-08-24T07:09:16.068Z,18.30
2022-08-24T07:12:03.201Z,18.15
2022-08-24T07:14:50.435Z,14.75
2022-08-24T07:17:38.469Z,16.63
2022-08-24T07:20:26.359Z,21.77
2022-08-24T07:23:42.118Z,20.92
2022-08-24T07:26:32.201Z,20.27
2022-08-24T07:32:31.734Z,19.30
2022-08-24T07:35:18.925Z,21.00
2022-08-24T07:38:08.255Z,22.17
2022-08-24T07:41:14.730Z,20.00
2022-08-24T07:44:04.733Z,19.92
2022-08-24T07:46:52.482Z,20.13
2022-08-24T07:49:41.864Z,19.55
2022-08-24T07:52:29.551Z,19.15
2022-08-24T07:55:16.975Z,17.50
2022-08-24T07:58:06.006Z,14.63
2022-08-24T08:00:54.043Z,15.07
2022-08-24T08:03:41.553Z,15.70
2022-08-24T08:06:28.928Z,17.90
2022-08-24T08:09:21.134Z,11.20
2022-08-24T08:12:09.541Z,14.45
2022-08-24T08:15:02.614Z,16.40
2022-08-24T08:17:54.081Z,10.52
2022-08-24T08:20:43.848Z,10.15
2022-08-24T08:23:49.655Z,13.60
2022-08-24T08:26:51.532Z,12.25
2022-08-24T08:29:47.218Z,12.77
2022-08-24T08:32:36.360Z,8.68
2022-08-24T08:35:24.314Z,8.35
2022-08-24T08:43:32.343Z,9.82
2022-08-24T08:46:40.838Z,11.18
2022-08-24T08:50:05.279Z,8.75
2022-08-24T08:53:51.651Z,9.07
2022-08-24T08:56:47.222Z,13.20
2022-08-24T08:59:48.638Z,7.95
2022-08-24T09:03:11.498Z,10.60
2022-08-24T09:06:32.730Z,12.18
2022-08-24T09:10:03.431Z,9.07
2022-08-24T09:13:07.384Z,9.10
2022-08-24T09:16:10.664Z,8.88
2022-08-24T09:19:31.666Z,9.73
2022-08-24T09:22:22.981Z,6.68
2022-08-24T09:25:26.528Z,7.75
2022-08-24T09:28:43.721Z,10.50
2022-08-24T09:31:44.882Z,9.93
2022-08-24T09:34:37.951Z,8.88
2022-08-24T09:37:34.795Z,10.75
2022-08-24T09:40:37.662Z,8.82
2022-08-24T09:43:51.106Z,8.18
2022-08-24T09:47:13.551Z,9.25
2022-08-24T09:50:27.030Z,7.72
2022-08-24T09:54:14.954Z,8.75
2022-08-24T09:57:44.234Z,8.00
2022-08-24T10:00:40.974Z,9.43
2022-08-24T10:03:44.702Z,10.55
2022-08-24T10:06:42.177Z,8.65
2022-08-24T10:09:51.485Z,10.32
2022-08-24T10:12:57.677Z,9.25
2022-08-24T10:15:53.714Z,12.50
2022-08-24T10:18:53.483Z,10.80
2022-08-24T10:21:53.249Z,8.65
2022-08-24T10:25:01.345Z,10.38
2022-08-24T10:27:58.717Z,9.52
2022-08-24T10:31:02.137Z,9.02
2022-08-24T10:34:07.592Z,9.27
2022-08-24T10:37:30.150Z,9.82
2022-08-24T10:40:34.718Z,10.38
2022-08-24T10:43:46.301Z,9.73
2022-08-24T10:46:45.449Z,11.38
2022-08-24T10:50:16.824Z,12.55
2022-08-24T10:53:27.364Z,11.40
2022-08-24T10:56:17.090Z,12.98
2022-08-24T10:59:18.941Z,13.68
2022-08-24T11:02:12.990Z,11.32
2022-08-24T11:05:01.834Z,11.52
2022-08-24T11:08:01.929Z,10.30
2022-08-24T11:11:07.080Z,11.85
2022-08-24T11:14:00.465Z,11.02
2022-08-24T11:16:52.562Z,10.75
2022-08-24T11:19:42.677Z,11.65
2022-08-24T11:22:40.625Z,10.98
2022-08-24T11:25:32.090Z,12.63
2022-08-24T11:28:26.262Z,11.68
2022-08-24T11:31:15.511Z,9.75
2022-08-24T11:34:08.001Z,8.40
2022-08-24T11:42:19.485Z,12.70
2022-08-24T11:45:20.409Z,9.82
2022-08-24T11:48:23.776Z,9.50
2022-08-24T11:51:28.847Z,9.90
2022-08-24T11:54:25.960Z,9.18
2022-08-24T11:57:18.378Z,9.23
2022-08-24T12:00:09.776Z,11.05
2022-08-24T12:03:06.395Z,12.40
2022-08-24T12:06:02.039Z,9.13
2022-08-24T12:08:56.329Z,8.48
2022-08-24T12:11:49.982Z,8.65
2022-08-24T12:14:42.781Z,8.73
2022-08-24T12:17:36.297Z,8.13
2022-08-24T12:20:31.821Z,8.40
2022-08-24T12:23:25.696Z,6.85
2022-08-24T12:26:29.291Z,6.60
2022-08-24T12:29:23.590Z,8.95
2022-08-24T12:32:16.016Z,8.57
2022-08-24T12:35:06.963Z,6.85
2022-08-24T12:38:00.222Z,10.13
2022-08-24T12:40:54.343Z,9.23
2022-08-24T12:43:47.089Z,8.50
2022-08-24T12:46:35.047Z,7.18
2022-08-24T12:49:29.266Z,9.07
2022-08-24T12:52:46.903Z,8.73
2022-08-24T12:56:17.363Z,6.47
2022-08-24T12:59:14.375Z,8.25
2022-08-24T13:02:04.502Z,8.25
2022-08-24T13:05:00.355Z,7.93
2022-08-24T13:07:50.618Z,7.78
2022-08-24T13:10:44.852Z,6.38
2022-08-24T13:13:46.806Z,10.75
2022-08-24T13:17:09.565Z,8.48
2022-08-24T13:20:20.566Z,6.57
2022-08-24T13:23:16.405Z,7.85
2022-08-24T13:26:23.949Z,6.20
2022-08-24T13:29:15.515Z,8.50
2022-08-24T13:32:06.574Z,5.60
2022-08-24T13:34:58.597Z,6.35
2022-08-24T13:38:21.659Z,5.65
2022-08-24T13:41:21.023Z,6.25
2022-08-24T13:44:16.995Z,6.45
2022-08-24T13:47:13.474Z,8.18
2022-08-24T13:50:10.900Z,7.45
2022-08-24T13:53:14.454Z,5.95
2022-08-24T13:56:32.387Z,6.90
2022-08-24T13:59:34.576Z,6.57
2022-08-24T14:02:33.217Z,5.28
2022-08-24T14:05:33.468Z,5.47
2022-08-24T14:08:36.120Z,6.75
2022-08-24T14:11:38.889Z,9.85
2022-08-24T14:15:06.486Z,10.27
2022-08-24T14:18:07.817Z,4.90
2022-08-24T14:21:09.637Z,5.85
2022-08-24T14:24:04.642Z,4.97
2022-08-24T14:27:02.436Z,4.55
2022-08-24T14:29:50.367Z,7.28
2022-08-24T14:32:47.618Z,4.60
2022-08-24T14:35:44.022Z,6.32
2022-08-24T14:38:48.266Z,6.63
2022-08-24T14:41:50.356Z,7.72
2022-08-24T14:44:56.319Z,6.60
2022-08-24T14:47:59.893Z,9.05
2022-08-24T14:50:55.966Z,9.70
2022-08-24T14:54:01.896Z,8.63
2022-08-24T14:57:00.663Z,9.40
2022-08-24T14:59:58.497Z,7.15
2022-08-24T15:03:12.449Z,7.70
2022-08-24T15:06:26.311Z,7.78
2022-08-24T15:09:22.090Z,6.93
2022-08-24T15:12:21.119Z,6.65
2022-08-24T15:15:18.949Z,5.72
2022-08-24T15:18:13.379Z,7.38
2022-08-24T15:21:12.636Z,7.05
2022-08-24T15:24:30.338Z,5.20
2022-08-24T15:27:26.043Z,7.03
2022-08-24T15:30:23.234Z,4.47
2022-08-24T15:33:18.435Z,9.25
2022-08-24T15:36:11.409Z,5.25
2022-08-24T15:43:24.446Z,6.95
2022-08-24T15:46:13.001Z,4.47
2022-08-24T15:49:06.076Z,5.72
2022-08-24T15:51:57.405Z,4.72
2022-08-24T15:54:57.005Z,4.90
2022-08-24T15:57:46.310Z,6.82
2022-08-24T16:00:54.699Z,8.48
2022-08-24T16:03:51.021Z,6.97
2022-08-24T16:06:42.199Z,9.98
2022-08-24T16:09:38.644Z,6.57
2022-08-24T16:12:32.393Z,8.10
2022-08-24T16:15:21.095Z,6.75
2022-08-24T16:18:08.237Z,4.55
2022-08-24T16:20:57.648Z,5.13
2022-08-24T16:23:47.620Z,5.13
2022-08-24T16:26:54.925Z,7.80
2022-08-24T16:29:50.366Z,6.57
2022-08-24T16:32:53.827Z,5.28
2022-08-24T16:35:41.704Z,7.55
2022-08-24T16:38:30.254Z,4.53
2022-08-24T16:41:20.030Z,4.78
2022-08-24T16:44:09.069Z,4.30
2022-08-24T16:46:56.257Z,5.50
2022-08-24T16:49:44.619Z,6.40
2022-08-24T16:52:31.763Z,6.95
2022-08-24T16:55:19.325Z,4.97
2022-08-24T16:58:06.727Z,7.50
2022-08-24T17:00:55.718Z,5.40
2022-08-24T17:03:42.946Z,6.18
2022-08-24T17:06:31.037Z,4.57
2022-08-24T17:09:18.955Z,6.20
2022-08-24T17:12:06.819Z,8.50
2022-08-24T17:14:54.845Z,5.35
2022-08-24T17:17:54.304Z,8.52
2022-08-24T17:20:42.576Z,5.65
2022-08-24T17:23:29.747Z,7.07
2022-08-24T17:26:20.773Z,6.47
2022-08-24T17:29:10.676Z,4.85
2022-08-24T17:32:56.142Z,4.63
2022-08-24T17:35:45.133Z,4.15
2022-08-24T17:38:50.342Z,6.35
2022-08-24T17:41:40.387Z,7.53
2022-08-24T17:44:29.635Z,4.63
2022-08-24T17:47:17.439Z,7.43
2022-08-24T17:50:06.524Z,10.38
2022-08-24T17:52:59.019Z,4.47
2022-08-24T17:55:48.214Z,8.32
2022-08-24T17:58:56.346Z,5.22
2022-08-24T18:01:44.506Z,8.18
2022-08-24T18:04:33.647Z,7.15
2022-08-24T18:07:42.199Z,4.82
2022-08-24T18:10:33.171Z,7.53
2022-08-24T18:13:23.129Z,5.78
2022-08-24T18:16:15.549Z,7.28
2022-08-24T18:19:03.126Z,4.18
2022-08-24T18:21:50.495Z,4.85
2022-08-24T18:24:37.937Z,5.53
2022-08-24T18:27:30.170Z,4.68
2022-08-24T18:30:21.043Z,4.47
2022-08-24T18:33:11.944Z,6.22
2022-08-24T18:35:59.493Z,6.95
2022-08-24T18:38:47.083Z,6.22
2022-08-24T18:41:37.149Z,4.03
2022-08-24T18:44:29.644Z,6.22
2022-08-24T18:47:19.177Z,7.65
2022-08-24T18:50:07.331Z,7.50
2022-08-24T18:52:54.696Z,5.57
2022-08-24T18:55:44.124Z,4.85
2022-08-24T18:58:31.433Z,6.95
2022-08-24T19:01:20.535Z,5.75
2022-08-24T19:04:13.520Z,4.45
2022-08-24T19:07:01.666Z,4.97
2022-08-24T19:09:48.921Z,6.22
2022-08-24T19:12:40.355Z,5.65
2022-08-24T19:15:39.634Z,6.25
2022-08-24T19:18:28.711Z,5.57
2022-08-24T19:21:16.159Z,5.70
2022-08-24T19:24:06.857Z,4.38
2022-08-24T19:26:54.511Z,5.80
2022-08-24T19:29:55.460Z,7.13
2022-08-24T19:32:44.301Z,4.70
2022-08-24T19:35:35.064Z,6.20
2022-08-24T19:38:25.759Z,5.25
2022-08-24T19:41:14.237Z,5.40
2022-08-24T19:44:23.552Z,6.45
2022-08-24T19:47:16.474Z,6.53
2022-08-24T19:50:05.512Z,4.85
2022-08-24T19:52:54.139Z,5.13
2022-08-24T19:55:41.489Z,5.50
2022-08-24T19:58:31.882Z,6.10
2022-08-24T20:01:21.289Z,6.30
2022-08-24T20:04:08.829Z,5.82
2022-08-24T20:06:56.209Z,4.88
2022-08-24T20:09:44.673Z,6.53
2022-08-24T20:12:32.081Z,5.80
2022-08-24T20:15:19.252Z,5.90
2022-08-24T20:18:06.614Z,5.00
2022-08-24T20:20:53.767Z,7.93
2022-08-24T20:23:41.207Z,4.85
2022-08-24T20:26:32.752Z,4.13
2022-08-24T20:29:20.867Z,6.60
2022-08-24T20:32:08.195Z,4.13
2022-08-24T20:34:56.782Z,4.82
2022-08-24T20:37:43.821Z,6.28
2022-08-24T20:40:31.203Z,6.68
2022-08-24T20:43:20.620Z,4.90
2022-08-24T20:46:08.052Z,7.18
2022-08-24T20:48:56.554Z,5.97
2022-08-24T20:51:43.574Z,4.60
2022-08-24T20:54:31.231Z,5.05
2022-08-24T20:57:21.428Z,4.70
2022-08-24T21:00:12.135Z,6.25
2022-08-24T21:02:59.408Z,8.65
2022-08-24T21:05:47.246Z,5.40
2022-08-24T21:08:34.933Z,8.98
2022-08-24T21:11:22.411Z,6.28
2022-08-24T21:14:09.361Z,4.85
2022-08-24T21:16:58.954Z,6.13
2022-08-24T21:19:46.398Z,4.70
2022-08-24T21:22:36.202Z,5.22
2022-08-24T21:25:23.311Z,7.20
2022-08-24T21:28:10.550Z,6.93
2022-08-24T21:31:05.812Z,5.40
2022-08-24T21:34:12.538Z,4.95
2022-08-24T21:36:59.622Z,7.45
2022-08-24T21:39:48.840Z,4.80
2022-08-24T21:42:36.723Z,4.78
2022-08-24T21:45:24.202Z,5.43
2022-08-24T21:48:12.581Z,5.97
2022-08-24T21:51:01.347Z,8.13
2022-08-24T21:53:48.488Z,4.22
2022-08-24T21:56:43.465Z,9.35
2022-08-24T21:59:31.364Z,7.90
2022-08-24T22:02:20.655Z,6.68
2022-08-24T22:05:08.993Z,5.57
2022-08-24T22:07:58.493Z,6.60
2022-08-24T22:10:46.357Z,5.55
2022-08-24T22:13:34.229Z,5.40
2022-08-24T22:16:22.050Z,5.28
2022-08-24T22:19:09.069Z,7.40
2022-08-24T22:26:48.729Z,7.90
2022-08-24T22:29:35.872Z,4.97
2022-08-24T22:37:33.951Z,6.10
2022-08-24T22:40:21.151Z,5.15
2022-08-24T22:43:09.551Z,4.75
2022-08-24T22:45:56.924Z,6.88
2022-08-24T22:48:44.443Z,5.68
2022-08-24T22:51:32.064Z,5.15
2022-08-24T22:54:20.002Z,9.73
2022-08-24T22:57:08.460Z,5.60
2022-08-24T22:59:57.303Z,7.63
2022-08-24T23:02:44.589Z,8.60
2022-08-24T23:05:31.679Z,7.90
2022-08-24T23:08:18.991Z,7.88
2022-08-24T23:11:06.809Z,6.00
2022-08-24T23:13:56.245Z,6.40
2022-08-24T23:16:47.719Z,4.85
2022-08-24T23:19:52.533Z,6.75
2022-08-24T23:22:41.477Z,7.93
2022-08-24T23:25:28.826Z,5.30
2022-08-24T23:28:17.253Z,6.50
2022-08-24T23:31:06.767Z,7.45
2022-08-24T23:33:55.353Z,6.03
2022-08-24T23:36:44.259Z,7.03
2022-08-24T23:39:32.042Z,7.55
2022-08-24T23:42:19.145Z,5.20
2022-08-24T23:45:09.339Z,6.03
2022-08-24T23:47:59.245Z,5.97
2022-08-24T23:50:48.035Z,6.43
2022-08-24T23:53:35.819Z,4.97
2022-08-24T23:56:26.213Z,6.68
2022-08-24T23:59:38.932Z,6.43
